createdAt,value
2023-02-11T00:01:33.747Z,100.00
2023-02-11T00:04:01.827Z,100.00
2023-02-11T00:06:30.145Z,100.00
2023-02-11T00:08:57.405Z,100.00
2023-02-11T00:11:31.496Z,100.00
2023-02-11T00:14:03.431Z,100.00
2023-02-11T00:16:32.884Z,100.00
2023-02-11T00:19:05.632Z,100.00
2023-02-11T00:21:32.457Z,100.00
2023-02-11T00:24:02.383Z,100.00
2023-02-11T00:26:34.444Z,100.00
2023-02-11T00:29:02.138Z,100.00
2023-02-11T00:31:29.320Z,100.00
2023-02-11T00:33:56.021Z,100.00
2023-02-11T00:36:25.889Z,100.00
2023-02-11T00:38:53.938Z,100.00
2023-02-11T00:41:21.907Z,100.00
2023-02-11T00:43:51.196Z,100.00
2023-02-11T00:46:22.802Z,100.00
2023-02-11T00:48:51.785Z,100.00
2023-02-11T00:51:18.464Z,100.00
2023-02-11T00:53:47.273Z,100.00
2023-02-11T00:56:16.104Z,100.00
2023-02-11T00:58:42.701Z,100.00
2023-02-11T01:01:12.676Z,100.00
2023-02-11T01:03:39.803Z,100.00
2023-02-11T01:06:08.517Z,100.00
2023-02-11T01:08:35.276Z,100.00
2023-02-11T01:11:07.693Z,100.00
2023-02-11T01:13:37.319Z,100.00
2023-02-11T01:16:10.794Z,100.00
2023-02-11T01:18:40.208Z,100.00
2023-02-11T01:21:07.747Z,100.00
2023-02-11T01:23:34.505Z,100.00
2023-02-11T01:26:03.651Z,100.00
2023-02-11T01:28:31.167Z,100.00
2023-02-11T01:31:00.094Z,100.00
2023-02-11T01:33:26.748Z,100.00
2023-02-11T01:35:53.708Z,100.00
2023-02-11T01:38:26.015Z,100.00
2023-02-11T01:41:01.135Z,100.00
2023-02-11T01:43:31.182Z,100.00
2023-02-11T01:46:20.767Z,100.00
2023-02-11T01:49:02.776Z,100.00
2023-02-11T01:51:50.763Z,100.00
2023-02-11T01:54:40.542Z,100.00
2023-02-11T01:57:24.729Z,100.00
2023-02-11T02:00:12.916Z,100.00
2023-02-11T02:02:50.594Z,100.00
2023-02-11T02:05:30.630Z,100.00
2023-02-11T02:08:19.121Z,100.00
2023-02-11T02:10:48.405Z,100.00
2023-02-11T02:13:15.322Z,100.00
2023-02-11T02:15:50.375Z,100.00
2023-02-11T02:18:48.949Z,100.00
2023-02-11T02:21:30.977Z,100.00
2023-02-11T02:24:26.496Z,100.00
2023-02-11T02:27:30.961Z,100.00
2023-02-11T02:30:17.685Z,100.00
2023-02-11T02:33:22.959Z,100.00
2023-02-11T02:36:12.829Z,100.00
2023-02-11T02:38:49.025Z,100.00
2023-02-11T02:41:19.657Z,100.00
2023-02-11T02:43:49.430Z,100.00
2023-02-11T02:46:23.739Z,100.00
2023-02-11T02:48:52.730Z,100.00
2023-02-11T02:51:56.903Z,100.00
2023-02-11T02:54:29.517Z,100.00
2023-02-11T02:57:04.541Z,100.00
2023-02-11T02:59:37.351Z,100.00
2023-02-11T03:02:29.181Z,100.00
2023-02-11T03:05:11.935Z,100.00
2023-02-11T03:08:18.393Z,100.00
2023-02-11T03:10:51.098Z,100.00
2023-02-11T03:13:21.697Z,100.00
2023-02-11T03:15:52.454Z,100.00
2023-02-11T03:18:22.723Z,100.00
2023-02-11T03:20:53.326Z,100.00
2023-02-11T03:23:32.931Z,100.00
2023-02-11T03:26:05.224Z,100.00
2023-02-11T03:28:43.029Z,100.00
2023-02-11T03:31:42.437Z,100.00
2023-02-11T03:34:23.500Z,100.00
2023-02-11T03:37:19.699Z,100.00
2023-02-11T03:39:52.714Z,100.00
2023-02-11T03:42:20.258Z,100.00
2023-02-11T03:44:53.558Z,100.00
2023-02-11T03:47:25.313Z,100.00
2023-02-11T03:49:55.479Z,100.00
2023-02-11T03:52:24.722Z,100.00
2023-02-11T03:54:56.084Z,100.00
2023-02-11T03:57:22.734Z,100.00
2023-02-11T04:00:01.409Z,100.00
2023-02-11T04:02:32.008Z,100.00
2023-02-11T04:04:59.059Z,100.00
2023-02-11T04:07:26.390Z,100.00
2023-02-11T04:09:53.821Z,100.00
2023-02-11T04:12:20.561Z,100.00
2023-02-11T04:14:47.231Z,100.00
2023-02-11T04:17:16.216Z,100.00
2023-02-11T04:19:42.839Z,100.00
2023-02-11T04:22:11.877Z,100.00
2023-02-11T04:24:38.600Z,100.00
2023-02-11T04:27:05.209Z,100.00
2023-02-11T04:29:35.047Z,100.00
2023-02-11T04:32:04.064Z,100.00
2023-02-11T04:34:30.817Z,100.00
2023-02-11T04:36:57.452Z,100.00
2023-02-11T04:39:24.079Z,100.00
2023-02-11T04:41:50.670Z,100.00
2023-02-11T04:44:17.276Z,100.00
2023-02-11T04:46:46.330Z,100.00
2023-02-11T04:49:16.896Z,100.00
2023-02-11T04:51:48.196Z,100.00
2023-02-11T04:54:16.115Z,100.00
2023-02-11T04:56:42.715Z,100.00
2023-02-11T04:59:09.373Z,100.00
2023-02-11T05:01:36.030Z,100.00
2023-02-11T05:04:02.785Z,100.00
2023-02-11T05:06:29.428Z,100.00
2023-02-11T05:08:56.017Z,100.00
2023-02-11T05:11:24.023Z,100.00
2023-02-11T05:13:50.984Z,100.00
2023-02-11T05:16:18.279Z,100.00
2023-02-11T05:18:45.365Z,100.00
2023-02-11T05:21:18.213Z,100.00
2023-02-11T05:23:45.839Z,100.00
2023-02-11T05:26:15.030Z,100.00
2023-02-11T05:28:42.175Z,100.00
2023-02-11T05:31:09.183Z,100.00
2023-02-11T05:33:35.892Z,100.00
2023-02-11T05:36:08.851Z,100.00
2023-02-11T05:38:36.407Z,100.00
2023-02-11T05:41:04.694Z,100.00
2023-02-11T05:43:31.792Z,100.00
2023-02-11T05:45:58.855Z,100.00
2023-02-11T05:48:25.493Z,100.00
2023-02-11T05:50:52.571Z,100.00
2023-02-11T05:53:19.145Z,100.00
2023-02-11T05:55:46.264Z,100.00
2023-02-11T05:58:13.634Z,100.00
2023-02-11T06:00:40.432Z,100.00
2023-02-11T06:03:07.082Z,100.00
2023-02-11T06:05:34.001Z,100.00
2023-02-11T06:08:03.136Z,100.00
2023-02-11T06:10:31.991Z,100.00
2023-02-11T06:12:58.614Z,100.00
2023-02-11T06:15:25.429Z,100.00
2023-02-11T06:17:52.480Z,100.00
2023-02-11T06:20:19.687Z,100.00
2023-02-11T06:22:48.519Z,100.00
2023-02-11T06:25:15.185Z,100.00
2023-02-11T06:27:44.201Z,100.00
2023-02-11T06:30:11.471Z,100.00
2023-02-11T06:32:46.129Z,100.00
2023-02-11T06:35:14.616Z,100.00
2023-02-11T06:37:42.132Z,100.00
2023-02-11T06:40:09.733Z,100.00
2023-02-11T06:42:38.790Z,100.00
2023-02-11T06:45:06.263Z,100.00
2023-02-11T06:47:32.967Z,100.00
2023-02-11T06:49:59.935Z,100.00
2023-02-11T06:52:26.559Z,100.00
2023-02-11T06:54:53.207Z,100.00
2023-02-11T06:57:19.880Z,100.00
2023-02-11T06:59:47.160Z,100.00
2023-02-11T07:02:13.797Z,100.00
2023-02-11T07:04:41.189Z,100.00
2023-02-11T07:07:07.862Z,100.00
2023-02-11T07:09:34.449Z,100.00
2023-02-11T07:12:01.008Z,100.00
2023-02-11T07:14:27.574Z,100.00
2023-02-11T07:16:54.155Z,100.00
2023-02-11T07:19:21.082Z,100.00
2023-02-11T07:21:48.782Z,100.00
2023-02-11T07:24:15.434Z,100.00
2023-02-11T07:26:42.062Z,100.00
2023-02-11T07:29:08.677Z,100.00
2023-02-11T07:31:35.340Z,100.00
2023-02-11T07:34:02.613Z,100.00
2023-02-11T07:36:32.030Z,100.00
2023-02-11T07:38:59.021Z,100.00
2023-02-11T07:41:26.677Z,100.00
2023-02-11T07:43:53.411Z,100.00
2023-02-11T07:46:25.311Z,100.00
2023-02-11T07:48:52.735Z,100.00
2023-02-11T07:51:27.904Z,100.00
2023-02-11T07:53:56.372Z,100.00
2023-02-11T07:56:24.064Z,100.00
2023-02-11T07:58:50.905Z,100.00
2023-02-11T08:01:25.314Z,100.00
2023-02-11T08:03:53.046Z,100.00
2023-02-11T08:06:21.310Z,100.00
2023-02-11T08:08:48.216Z,100.00
2023-02-11T08:11:26.610Z,100.00
2023-02-11T08:13:55.424Z,100.00
2023-02-11T08:16:34.006Z,100.00
2023-02-11T08:19:04.686Z,100.00
2023-02-11T08:21:31.151Z,100.00
2023-02-11T08:23:57.892Z,100.00
2023-02-11T08:26:31.897Z,100.00
2023-02-11T08:28:58.911Z,100.00
2023-02-11T08:31:31.255Z,100.00
2023-02-11T08:33:58.287Z,100.00
2023-02-11T08:36:29.090Z,100.00
2023-02-11T08:39:16.096Z,100.00
2023-02-11T08:41:44.623Z,100.00
2023-02-11T08:44:11.713Z,100.00
2023-02-11T08:46:38.306Z,100.00
2023-02-11T08:49:05.101Z,100.00
2023-02-11T08:51:33.691Z,100.00
2023-02-11T08:54:00.874Z,100.00
2023-02-11T08:56:28.260Z,100.00
2023-02-11T08:58:55.120Z,100.00
2023-02-11T09:01:27.308Z,100.00
2023-02-11T09:03:54.316Z,100.00
2023-02-11T09:06:22.562Z,100.00
2023-02-11T09:08:51.385Z,100.00
2023-02-11T09:11:20.988Z,100.00
2023-02-11T09:13:47.622Z,99.85
2023-02-11T09:16:35.782Z,93.98
2023-02-11T09:19:04.056Z,94.52
2023-02-11T09:21:31.503Z,89.69
2023-02-11T09:23:58.077Z,88.96
2023-02-11T09:26:27.259Z,86.09
2023-02-11T09:28:54.394Z,81.50
2023-02-11T09:31:23.687Z,81.55
2023-02-11T09:33:53.558Z,84.03
2023-02-11T09:36:26.399Z,69.24
2023-02-11T09:38:53.610Z,64.07
2023-02-11T09:41:23.139Z,59.79
2023-02-11T09:43:53.759Z,55.90
2023-02-11T09:46:22.025Z,53.52
2023-02-11T09:48:50.634Z,47.98
2023-02-11T09:51:26.086Z,45.34
2023-02-11T09:54:00.468Z,40.33
2023-02-11T09:56:28.359Z,39.11
2023-02-11T09:58:54.972Z,40.82
2023-02-11T10:01:43.442Z,41.52
2023-02-11T10:04:34.907Z,39.57
2023-02-11T10:07:28.588Z,38.20
2023-02-11T10:10:00.924Z,37.84
2023-02-11T10:12:53.145Z,38.25
2023-02-11T10:15:28.645Z,37.50
2023-02-11T10:18:19.673Z,41.32
2023-02-11T10:21:31.090Z,40.78
2023-02-11T10:24:03.470Z,44.49
2023-02-11T10:26:31.862Z,47.38
2023-02-11T10:29:05.514Z,48.32
2023-02-11T10:31:42.358Z,48.06
2023-02-11T10:34:14.003Z,48.00
2023-02-11T10:36:43.356Z,51.49
2023-02-11T10:39:16.510Z,49.22
2023-02-11T10:41:53.075Z,50.15
2023-02-11T10:44:29.460Z,47.22
2023-02-11T10:46:58.070Z,47.43
2023-02-11T10:49:45.084Z,46.44
2023-02-11T10:52:25.980Z,46.39
2023-02-11T10:54:57.931Z,42.77
2023-02-11T10:57:38.153Z,43.35
2023-02-11T11:00:20.666Z,43.07
2023-02-11T11:02:55.695Z,42.30
2023-02-11T11:05:29.382Z,47.19
2023-02-11T11:08:03.955Z,47.94
2023-02-11T11:10:43.948Z,44.12
2023-02-11T11:13:32.378Z,45.78
2023-02-11T11:16:07.454Z,41.74
2023-02-11T11:18:34.288Z,39.92
2023-02-11T11:21:05.792Z,38.04
2023-02-11T11:23:34.606Z,39.86
2023-02-11T11:26:06.721Z,40.37
2023-02-11T11:28:39.283Z,40.56
2023-02-11T11:31:14.735Z,39.09
2023-02-11T11:33:44.580Z,36.03
2023-02-11T11:36:19.879Z,38.77
2023-02-11T11:38:54.334Z,40.05
2023-02-11T11:41:25.471Z,40.94
2023-02-11T11:44:01.100Z,44.40
2023-02-11T11:46:40.473Z,43.78
2023-02-11T11:49:29.862Z,41.88
2023-02-11T11:52:27.085Z,40.54
2023-02-11T11:55:19.505Z,41.09
2023-02-11T11:57:46.248Z,42.30
2023-02-11T12:00:20.573Z,42.93
2023-02-11T12:03:13.103Z,44.14
2023-02-11T12:06:04.218Z,41.31
2023-02-11T12:08:46.046Z,38.80
2023-02-11T12:11:26.077Z,39.79
2023-02-11T12:13:58.411Z,38.20
2023-02-11T12:16:42.146Z,38.92
2023-02-11T12:19:36.100Z,37.63
2023-02-11T12:22:11.637Z,39.90
2023-02-11T12:24:59.501Z,36.98
2023-02-11T12:28:06.197Z,38.14
2023-02-11T12:31:21.110Z,39.99
2023-02-11T12:34:10.177Z,44.46
2023-02-11T12:36:43.121Z,44.21
2023-02-11T12:39:40.597Z,46.09
2023-02-11T12:42:35.196Z,45.15
2023-02-11T12:45:18.665Z,46.42
2023-02-11T12:48:00.325Z,45.61
2023-02-11T12:50:45.734Z,45.50
2023-02-11T12:53:44.585Z,45.78
2023-02-11T12:56:21.334Z,43.67
2023-02-11T12:58:50.632Z,42.76
2023-02-11T13:01:29.708Z,42.26
2023-02-11T13:04:08.514Z,44.36
2023-02-11T13:06:46.652Z,41.49
2023-02-11T13:09:21.083Z,42.94
2023-02-11T13:11:54.739Z,40.57
2023-02-11T13:14:35.233Z,41.23
2023-02-11T13:17:12.996Z,40.29
2023-02-11T13:19:49.171Z,41.69
2023-02-11T13:22:39.892Z,42.27
2023-02-11T13:25:36.388Z,41.77
2023-02-11T13:28:18.025Z,42.00
2023-02-11T13:30:52.464Z,43.17
2023-02-11T13:33:30.647Z,43.54
2023-02-11T13:35:57.161Z,43.37
2023-02-11T13:38:31.847Z,43.52
2023-02-11T13:41:06.123Z,41.97
2023-02-11T13:43:35.179Z,42.07
2023-02-11T13:46:06.676Z,42.33
2023-02-11T13:48:37.167Z,41.70
2023-02-11T13:51:05.805Z,43.00
2023-02-11T13:53:45.720Z,41.90
2023-02-11T13:56:40.061Z,43.34
2023-02-11T13:59:27.471Z,42.85
2023-02-11T14:02:14.011Z,45.48
2023-02-11T14:05:24.176Z,45.84
2023-02-11T14:08:29.614Z,46.54
2023-02-11T14:11:08.703Z,48.84
2023-02-11T14:13:47.288Z,48.55
2023-02-11T14:16:22.637Z,48.98
2023-02-11T14:18:54.724Z,50.16
2023-02-11T14:21:27.458Z,49.76
2023-02-11T14:24:14.398Z,49.58
2023-02-11T14:26:56.807Z,50.24
2023-02-11T14:29:54.221Z,50.49
2023-02-11T14:32:38.382Z,51.21
2023-02-11T14:35:36.037Z,53.84
2023-02-11T14:38:34.296Z,52.69
2023-02-11T14:41:19.786Z,52.26
2023-02-11T14:43:51.537Z,52.34
2023-02-11T14:46:19.813Z,51.65
2023-02-11T14:48:53.730Z,52.26
2023-02-11T14:51:23.458Z,50.78
2023-02-11T14:53:53.033Z,49.90
2023-02-11T14:56:26.519Z,49.27
2023-02-11T14:58:54.647Z,46.39
2023-02-11T15:01:28.523Z,46.07
2023-02-11T15:03:56.673Z,43.88
2023-02-11T15:06:39.292Z,44.26
2023-02-11T15:09:05.787Z,43.62
2023-02-11T15:11:39.633Z,44.26
2023-02-11T15:14:27.331Z,44.46
2023-02-11T15:16:57.437Z,45.97
2023-02-11T15:19:34.469Z,45.91
2023-02-11T15:22:06.937Z,45.65
2023-02-11T15:24:35.529Z,45.71
2023-02-11T15:27:14.598Z,45.54
2023-02-11T15:29:46.678Z,46.20
2023-02-11T15:32:18.616Z,46.44
2023-02-11T15:34:46.508Z,46.90
2023-02-11T15:37:29.897Z,47.49
2023-02-11T15:40:12.713Z,47.93
2023-02-11T15:42:52.075Z,47.53
2023-02-11T15:45:29.144Z,47.24
2023-02-11T15:48:21.920Z,47.98
2023-02-11T15:50:55.124Z,48.69
2023-02-11T15:53:27.916Z,49.71
2023-02-11T15:56:04.190Z,50.72
2023-02-11T15:58:37.829Z,51.40
2023-02-11T16:01:04.863Z,50.13
2023-02-11T16:03:33.059Z,51.93
2023-02-11T16:06:25.771Z,52.08
2023-02-11T16:08:58.409Z,52.73
2023-02-11T16:11:38.388Z,52.70
2023-02-11T16:14:23.247Z,53.09
2023-02-11T16:16:53.192Z,53.77
2023-02-11T16:19:24.174Z,54.58
2023-02-11T16:21:53.163Z,55.03
2023-02-11T16:24:24.483Z,56.32
2023-02-11T16:26:55.015Z,56.61
2023-02-11T16:29:26.285Z,57.16
2023-02-11T16:31:54.510Z,55.33
2023-02-11T16:34:23.438Z,55.18
2023-02-11T16:36:51.622Z,55.32
2023-02-11T16:39:22.469Z,55.42
2023-02-11T16:41:52.305Z,54.99
2023-02-11T16:44:19.103Z,54.69
2023-02-11T16:46:46.078Z,55.22
2023-02-11T16:49:26.451Z,55.50
2023-02-11T16:51:56.901Z,55.88
2023-02-11T16:54:23.423Z,56.21
2023-02-11T16:56:50.336Z,57.40
2023-02-11T16:59:16.897Z,59.34
2023-02-11T17:01:44.815Z,61.00
2023-02-11T17:04:24.797Z,62.23
2023-02-11T17:06:51.717Z,63.95
2023-02-11T17:09:21.145Z,64.69
2023-02-11T17:11:48.200Z,65.10
2023-02-11T17:14:15.403Z,66.23
2023-02-11T17:16:42.409Z,66.82
2023-02-11T17:19:12.993Z,66.90
2023-02-11T17:21:47.419Z,68.32
2023-02-11T17:24:15.095Z,68.28
2023-02-11T17:26:43.267Z,68.17
2023-02-11T17:29:12.145Z,67.54
2023-02-11T17:31:39.642Z,68.71
2023-02-11T17:34:06.989Z,68.53
2023-02-11T17:36:34.014Z,68.67
2023-02-11T17:39:01.417Z,69.85
2023-02-11T17:41:29.048Z,69.21
2023-02-11T17:43:59.382Z,68.29
2023-02-11T17:46:28.265Z,67.79
2023-02-11T17:48:55.878Z,67.79
2023-02-11T17:51:28.340Z,68.73
2023-02-11T17:53:57.685Z,67.56
2023-02-11T17:56:24.442Z,67.95
2023-02-11T17:58:52.257Z,67.52
2023-02-11T18:01:19.693Z,66.75
2023-02-11T18:03:46.400Z,67.71
2023-02-11T18:06:13.235Z,67.53
2023-02-11T18:08:41.749Z,66.65
2023-02-11T18:11:12.827Z,67.09
2023-02-11T18:13:39.452Z,67.51
2023-02-11T18:16:08.492Z,66.15
2023-02-11T18:18:35.651Z,65.29
2023-02-11T18:21:04.058Z,64.93
2023-02-11T18:23:30.692Z,64.04
2023-02-11T18:25:57.271Z,64.24
2023-02-11T18:28:24.024Z,63.96
2023-02-11T18:30:57.478Z,64.49
2023-02-11T18:33:24.285Z,64.78
2023-02-11T18:35:51.139Z,64.30
2023-02-11T18:38:18.697Z,63.97
2023-02-11T18:40:50.386Z,64.69
2023-02-11T18:43:17.565Z,64.99
2023-02-11T18:45:45.301Z,64.52
2023-02-11T18:48:12.597Z,64.25
2023-02-11T18:50:44.538Z,63.77
2023-02-11T18:53:12.951Z,64.15
2023-02-11T18:55:41.228Z,63.50
2023-02-11T18:58:07.903Z,63.62
2023-02-11T19:00:36.178Z,65.22
2023-02-11T19:03:03.313Z,65.31
2023-02-11T19:05:33.375Z,64.82
2023-02-11T19:08:01.098Z,65.07
2023-02-11T19:10:28.018Z,65.42
2023-02-11T19:12:56.421Z,67.14
2023-02-11T19:15:23.081Z,67.78
2023-02-11T19:17:49.783Z,67.76
2023-02-11T19:20:17.011Z,67.48
2023-02-11T19:22:44.125Z,66.98
2023-02-11T19:25:12.016Z,67.22
2023-02-11T19:27:41.748Z,67.89
2023-02-11T19:30:10.035Z,69.04
2023-02-11T19:32:36.666Z,68.28
2023-02-11T19:35:03.979Z,67.81
2023-02-11T19:37:30.572Z,67.28
2023-02-11T19:39:57.137Z,66.61
2023-02-11T19:42:26.525Z,66.32
2023-02-11T19:44:53.965Z,66.55
2023-02-11T19:47:26.733Z,65.77
2023-02-11T19:49:53.970Z,66.62
2023-02-11T19:52:20.772Z,66.92
2023-02-11T19:54:47.396Z,66.77
2023-02-11T19:57:14.039Z,67.23
2023-02-11T19:59:40.694Z,67.02
2023-02-11T20:02:08.076Z,68.39
2023-02-11T20:04:34.705Z,66.06
2023-02-11T20:07:01.314Z,66.73
2023-02-11T20:09:29.085Z,64.89
2023-02-11T20:11:55.680Z,64.82
2023-02-11T20:14:22.581Z,66.47
2023-02-11T20:16:50.271Z,66.58
2023-02-11T20:19:19.998Z,67.09
2023-02-11T20:21:48.380Z,67.07
2023-02-11T20:24:17.599Z,67.32
2023-02-11T20:26:45.824Z,66.56
2023-02-11T20:29:12.511Z,66.74
2023-02-11T20:31:39.305Z,67.18
2023-02-11T20:34:05.952Z,67.65
2023-02-11T20:36:35.725Z,67.12
2023-02-11T20:39:04.885Z,68.02
2023-02-11T20:41:38.759Z,69.39
2023-02-11T20:44:07.985Z,69.09
2023-02-11T20:46:37.385Z,70.44
2023-02-11T20:49:04.056Z,70.80
2023-02-11T20:51:33.565Z,71.14
2023-02-11T20:54:01.164Z,71.91
2023-02-11T20:56:30.457Z,74.59
2023-02-11T20:58:58.763Z,72.91
2023-02-11T21:01:28.946Z,73.02
2023-02-11T21:04:04.706Z,73.88
2023-02-11T21:06:34.782Z,75.99
2023-02-11T21:09:02.200Z,75.26
2023-02-11T21:11:28.807Z,76.17
2023-02-11T21:13:55.458Z,76.54
2023-02-11T21:16:22.249Z,78.07
2023-02-11T21:18:50.317Z,76.88
2023-02-11T21:21:18.719Z,76.66
2023-02-11T21:23:46.263Z,76.05
2023-02-11T21:26:13.765Z,77.57
2023-02-11T21:28:41.232Z,79.91
2023-02-11T21:31:08.869Z,81.22
2023-02-11T21:33:35.990Z,81.85
2023-02-11T21:36:06.186Z,81.35
2023-02-11T21:38:32.881Z,87.22
2023-02-11T21:41:04.254Z,87.94
2023-02-11T21:43:31.434Z,89.22
2023-02-11T21:45:58.038Z,89.67
2023-02-11T21:48:25.784Z,90.62
2023-02-11T21:50:53.595Z,90.79
2023-02-11T21:53:20.405Z,91.75
2023-02-11T21:55:47.175Z,92.06
2023-02-11T21:58:14.406Z,92.09
2023-02-11T22:00:41.051Z,92.93
2023-02-11T22:03:07.714Z,93.61
2023-02-11T22:05:34.330Z,93.69
2023-02-11T22:08:00.957Z,95.02
2023-02-11T22:10:27.565Z,95.68
2023-02-11T22:12:54.128Z,95.98
2023-02-11T22:15:20.702Z,96.72
2023-02-11T22:17:47.371Z,98.42
2023-02-11T22:20:14.025Z,98.92
2023-02-11T22:22:40.613Z,98.62
2023-02-11T22:25:07.622Z,98.70
2023-02-11T22:27:34.240Z,100.00
2023-02-11T22:30:00.817Z,100.00
2023-02-11T22:32:27.391Z,100.00
2023-02-11T22:34:54.024Z,100.00
2023-02-11T22:37:20.713Z,100.00
2023-02-11T22:39:47.443Z,100.00
2023-02-11T22:42:14.057Z,100.00
2023-02-11T22:44:40.651Z,100.00
2023-02-11T22:47:07.214Z,100.00
2023-02-11T22:49:33.838Z,100.00
2023-02-11T22:52:00.539Z,100.00
2023-02-11T22:54:27.499Z,100.00
2023-02-11T22:56:54.166Z,100.00
2023-02-11T22:59:21.354Z,100.00
2023-02-11T23:01:49.102Z,100.00
2023-02-11T23:04:17.021Z,100.00
2023-02-11T23:06:43.989Z,100.00
2023-02-11T23:09:12.561Z,100.00
2023-02-11T23:11:40.492Z,100.00
2023-02-11T23:14:08.681Z,100.00
2023-02-11T23:16:35.394Z,100.00
2023-02-11T23:19:05.924Z,100.00
2023-02-11T23:21:35.201Z,100.00
2023-02-11T23:24:12.972Z,100.00
2023-02-11T23:26:40.904Z,100.00
2023-02-11T23:29:07.936Z,100.00
2023-02-11T23:31:37.949Z,100.00
2023-02-11T23:34:05.352Z,100.00
2023-02-11T23:36:32.507Z,100.00
2023-02-11T23:38:59.116Z,100.00
2023-02-11T23:41:25.855Z,100.00
2023-02-11T23:43:55.038Z,100.00
2023-02-11T23:46:23.404Z,100.00
2023-02-11T23:48:50.856Z,100.00
2023-02-11T23:51:18.481Z,100.00
2023-02-11T23:53:49.337Z,100.00
2023-02-11T23:56:20.027Z,100.00
2023-02-11T23:58:50.299Z,100.00
